sensor_id;sensor_type;location;lat;lon;timestamp;pressure;altitude;pressure_sealevel;temperature;humidity
76128;BME280;64873;50.102;14.434;2023-04-28T00:01:09;99602.91;;;6.18;60.71
76128;BME280;64873;50.102;14.434;2023-04-28T00:03:35;99591.31;;;5.96;61.00
76128;BME280;64873;50.102;14.434;2023-04-28T00:06:01;99593.44;;;6.01;60.85
76128;BME280;64873;50.102;14.434;2023-04-28T00:08:27;99595.66;;;5.89;61.30
76128;BME280;64873;50.102;14.434;2023-04-28T00:10:53;99607.47;;;5.86;61.69
76128;BME280;64873;50.102;14.434;2023-04-28T00:13:18;99608.00;;;6.05;61.13
76128;BME280;64873;50.102;14.434;2023-04-28T00:15:44;99588.94;;;6.01;60.84
76128;BME280;64873;50.102;14.434;2023-04-28T00:18:09;99590.25;;;6.05;61.13
76128;BME280;64873;50.102;14.434;2023-04-28T00:20:34;99586.69;;;5.98;61.41
76128;BME280;64873;50.102;14.434;2023-04-28T00:23:00;99594.38;;;6.08;61.19
76128;BME280;64873;50.102;14.434;2023-04-28T00:25:25;99577.34;;;6.02;61.17
76128;BME280;64873;50.102;14.434;2023-04-28T00:27:51;99581.38;;;5.90;61.50
76128;BME280;64873;50.102;14.434;2023-04-28T00:30:16;99595.56;;;6.05;61.73
76128;BME280;64873;50.102;14.434;2023-04-28T00:32:42;99586.38;;;5.93;61.83
76128;BME280;64873;50.102;14.434;2023-04-28T00:35:07;99571.78;;;5.89;61.90
76128;BME280;64873;50.102;14.434;2023-04-28T00:37:36;99581.72;;;5.95;61.55
76128;BME280;64873;50.102;14.434;2023-04-28T00:40:02;99571.88;;;5.81;62.52
76128;BME280;64873;50.102;14.434;2023-04-28T00:42:28;99581.38;;;5.90;62.77
76128;BME280;64873;50.102;14.434;2023-04-28T00:44:53;99570.50;;;5.85;62.37
76128;BME280;64873;50.102;14.434;2023-04-28T00:47:18;99568.09;;;5.75;61.93
76128;BME280;64873;50.102;14.434;2023-04-28T00:49:44;99586.41;;;5.85;61.51
76128;BME280;64873;50.102;14.434;2023-04-28T00:52:11;99588.72;;;5.88;61.20
76128;BME280;64873;50.102;14.434;2023-04-28T00:54:37;99594.34;;;5.85;61.34
76128;BME280;64873;50.102;14.434;2023-04-28T00:57:02;99593.44;;;5.78;61.54
76128;BME280;64873;50.102;14.434;2023-04-28T00:59:29;99596.00;;;5.86;61.43
76128;BME280;64873;50.102;14.434;2023-04-28T01:01:55;99595.38;;;5.84;61.59
76128;BME280;64873;50.102;14.434;2023-04-28T01:04:21;99585.41;;;5.86;61.40
76128;BME280;64873;50.102;14.434;2023-04-28T01:06:48;99554.72;;;5.69;61.39
76128;BME280;64873;50.102;14.434;2023-04-28T01:09:15;99564.97;;;5.72;61.69
76128;BME280;64873;50.102;14.434;2023-04-28T01:11:40;99568.22;;;5.82;61.41
76128;BME280;64873;50.102;14.434;2023-04-28T01:14:06;99566.09;;;5.77;61.75
76128;BME280;64873;50.102;14.434;2023-04-28T01:16:32;99561.50;;;5.71;62.03
76128;BME280;64873;50.102;14.434;2023-04-28T01:18:59;99557.25;;;5.62;62.50
76128;BME280;64873;50.102;14.434;2023-04-28T01:21:30;99560.00;;;5.69;62.61
76128;BME280;64873;50.102;14.434;2023-04-28T01:24:00;99555.88;;;5.51;62.92
76128;BME280;64873;50.102;14.434;2023-04-28T01:26:26;99566.56;;;5.81;62.76
76128;BME280;64873;50.102;14.434;2023-04-28T01:28:51;99551.00;;;5.78;62.32
76128;BME280;64873;50.102;14.434;2023-04-28T01:31:17;99536.72;;;5.79;62.65
76128;BME280;64873;50.102;14.434;2023-04-28T01:33:42;99547.09;;;5.88;62.34
76128;BME280;64873;50.102;14.434;2023-04-28T01:36:08;99549.28;;;5.85;62.66
76128;BME280;64873;50.102;14.434;2023-04-28T01:38:33;99552.19;;;5.98;62.28
76128;BME280;64873;50.102;14.434;2023-04-28T01:40:59;99557.22;;;5.85;62.88
76128;BME280;64873;50.102;14.434;2023-04-28T01:43:27;99550.19;;;6.00;62.11
76128;BME280;64873;50.102;14.434;2023-04-28T01:45:52;99547.91;;;5.89;61.97
76128;BME280;64873;50.102;14.434;2023-04-28T01:48:17;99550.75;;;5.87;62.03
76128;BME280;64873;50.102;14.434;2023-04-28T01:50:43;99548.59;;;5.91;62.62
76128;BME280;64873;50.102;14.434;2023-04-28T01:53:08;99543.94;;;5.93;61.98
76128;BME280;64873;50.102;14.434;2023-04-28T01:55:33;99551.28;;;5.83;62.55
76128;BME280;64873;50.102;14.434;2023-04-28T01:57:59;99527.91;;;5.86;62.42
76128;BME280;64873;50.102;14.434;2023-04-28T02:00:25;99526.78;;;5.81;62.52
76128;BME280;64873;50.102;14.434;2023-04-28T02:02:51;99542.13;;;5.71;63.74
76128;BME280;64873;50.102;14.434;2023-04-28T02:05:16;99539.53;;;5.62;63.99
76128;BME280;64873;50.102;14.434;2023-04-28T02:07:42;99532.00;;;5.51;65.11
76128;BME280;64873;50.102;14.434;2023-04-28T02:10:08;99540.91;;;5.58;65.62
76128;BME280;64873;50.102;14.434;2023-04-28T02:12:34;99543.34;;;5.60;65.86
76128;BME280;64873;50.102;14.434;2023-04-28T02:14:59;99536.31;;;5.52;66.33
76128;BME280;64873;50.102;14.434;2023-04-28T02:17:25;99520.22;;;5.54;66.42
76128;BME280;64873;50.102;14.434;2023-04-28T02:19:54;99522.50;;;5.57;66.57
76128;BME280;64873;50.102;14.434;2023-04-28T02:22:23;99536.88;;;5.62;66.60
76128;BME280;64873;50.102;14.434;2023-04-28T02:24:49;99537.94;;;5.53;66.68
76128;BME280;64873;50.102;14.434;2023-04-28T02:27:14;99537.56;;;5.56;67.01
76128;BME280;64873;50.102;14.434;2023-04-28T02:29:39;99539.59;;;5.54;67.18
76128;BME280;64873;50.102;14.434;2023-04-28T02:32:06;99549.97;;;5.64;67.12
76128;BME280;64873;50.102;14.434;2023-04-28T02:34:32;99550.19;;;5.54;66.98
76128;BME280;64873;50.102;14.434;2023-04-28T02:36:57;99548.38;;;5.55;66.70
76128;BME280;64873;50.102;14.434;2023-04-28T02:39:23;99556.81;;;5.58;66.82
76128;BME280;64873;50.102;14.434;2023-04-28T02:41:51;99556.44;;;5.61;66.76
76128;BME280;64873;50.102;14.434;2023-04-28T02:44:17;99566.22;;;5.61;67.12
76128;BME280;64873;50.102;14.434;2023-04-28T02:46:42;99561.25;;;5.81;66.74
76128;BME280;64873;50.102;14.434;2023-04-28T02:49:08;99550.06;;;5.71;66.90
76128;BME280;64873;50.102;14.434;2023-04-28T02:51:33;99570.69;;;6.06;65.86
76128;BME280;64873;50.102;14.434;2023-04-28T02:53:58;99556.59;;;6.06;65.65
76128;BME280;64873;50.102;14.434;2023-04-28T02:56:24;99566.31;;;5.91;66.68
76128;BME280;64873;50.102;14.434;2023-04-28T02:58:49;99556.19;;;5.94;65.77
76128;BME280;64873;50.102;14.434;2023-04-28T03:01:15;99556.13;;;6.02;65.72
76128;BME280;64873;50.102;14.434;2023-04-28T03:03:40;99560.25;;;6.05;65.88
76128;BME280;64873;50.102;14.434;2023-04-28T03:06:06;99546.50;;;6.01;66.07
76128;BME280;64873;50.102;14.434;2023-04-28T03:08:31;99537.66;;;5.86;66.43
76128;BME280;64873;50.102;14.434;2023-04-28T03:10:57;99526.25;;;5.62;66.93
76128;BME280;64873;50.102;14.434;2023-04-28T03:13:22;99531.88;;;5.45;67.58
76128;BME280;64873;50.102;14.434;2023-04-28T03:15:48;99529.63;;;5.56;67.11
76128;BME280;64873;50.102;14.434;2023-04-28T03:18:13;99525.72;;;5.52;66.24
76128;BME280;64873;50.102;14.434;2023-04-28T03:20:39;99514.38;;;5.58;66.33
76128;BME280;64873;50.102;14.434;2023-04-28T03:23:04;99513.81;;;5.48;66.58
76128;BME280;64873;50.102;14.434;2023-04-28T03:25:30;99507.78;;;5.54;66.20
76128;BME280;64873;50.102;14.434;2023-04-28T03:27:55;99513.72;;;5.56;66.00
76128;BME280;64873;50.102;14.434;2023-04-28T03:30:20;99499.84;;;5.54;65.56
76128;BME280;64873;50.102;14.434;2023-04-28T03:32:46;99488.88;;;5.57;65.10
76128;BME280;64873;50.102;14.434;2023-04-28T03:35:11;99502.97;;;5.73;64.88
76128;BME280;64873;50.102;14.434;2023-04-28T03:37:37;99493.72;;;5.69;64.64
76128;BME280;64873;50.102;14.434;2023-04-28T03:40:03;99498.97;;;5.77;64.55
76128;BME280;64873;50.102;14.434;2023-04-28T03:42:28;99510.59;;;5.76;64.42
76128;BME280;64873;50.102;14.434;2023-04-28T03:44:54;99489.28;;;5.69;64.21
76128;BME280;64873;50.102;14.434;2023-04-28T03:47:19;99511.59;;;5.75;64.19
76128;BME280;64873;50.102;14.434;2023-04-28T03:49:45;99491.81;;;5.62;64.10
76128;BME280;64873;50.102;14.434;2023-04-28T03:52:10;99515.72;;;5.77;63.94
76128;BME280;64873;50.102;14.434;2023-04-28T03:54:36;99511.41;;;5.76;64.04
76128;BME280;64873;50.102;14.434;2023-04-28T03:57:01;99517.16;;;5.80;63.80
76128;BME280;64873;50.102;14.434;2023-04-28T03:59:28;99508.81;;;5.91;63.39
76128;BME280;64873;50.102;14.434;2023-04-28T04:01:54;99512.00;;;5.86;63.37
76128;BME280;64873;50.102;14.434;2023-04-28T04:04:19;99489.81;;;5.79;63.68
76128;BME280;64873;50.102;14.434;2023-04-28T04:06:45;99499.06;;;5.83;63.67
76128;BME280;64873;50.102;14.434;2023-04-28T04:09:10;99500.28;;;5.81;63.34
76128;BME280;64873;50.102;14.434;2023-04-28T04:11:36;99504.91;;;5.79;63.68
76128;BME280;64873;50.102;14.434;2023-04-28T04:14:01;99500.63;;;5.78;63.33
76128;BME280;64873;50.102;14.434;2023-04-28T04:16:27;99509.06;;;5.81;63.52
76128;BME280;64873;50.102;14.434;2023-04-28T04:18:53;99509.50;;;5.85;63.63
76128;BME280;64873;50.102;14.434;2023-04-28T04:21:18;99491.38;;;5.74;63.75
76128;BME280;64873;50.102;14.434;2023-04-28T04:23:44;99503.19;;;5.86;63.69
76128;BME280;64873;50.102;14.434;2023-04-28T04:26:09;99505.50;;;5.89;63.40
76128;BME280;64873;50.102;14.434;2023-04-28T04:28:35;99492.66;;;5.78;63.72
76128;BME280;64873;50.102;14.434;2023-04-28T04:31:00;99499.59;;;5.79;63.98
76128;BME280;64873;50.102;14.434;2023-04-28T04:33:26;99493.38;;;5.72;64.10
76128;BME280;64873;50.102;14.434;2023-04-28T04:35:53;99511.81;;;5.88;63.72
76128;BME280;64873;50.102;14.434;2023-04-28T04:38:18;99487.78;;;5.67;63.60
76128;BME280;64873;50.102;14.434;2023-04-28T04:40:44;99500.91;;;5.83;63.78
76128;BME280;64873;50.102;14.434;2023-04-28T04:43:09;99496.22;;;5.85;63.72
76128;BME280;64873;50.102;14.434;2023-04-28T04:45:34;99488.56;;;5.75;63.82
76128;BME280;64873;50.102;14.434;2023-04-28T04:48:01;99502.00;;;5.88;63.61
76128;BME280;64873;50.102;14.434;2023-04-28T04:50:26;99478.97;;;5.89;63.80
76128;BME280;64873;50.102;14.434;2023-04-28T04:52:51;99485.63;;;5.85;64.00
76128;BME280;64873;50.102;14.434;2023-04-28T04:55:18;99499.22;;;6.05;63.85
76128;BME280;64873;50.102;14.434;2023-04-28T04:57:44;99488.25;;;6.08;63.51
76128;BME280;64873;50.102;14.434;2023-04-28T05:00:10;99491.19;;;6.13;63.72
76128;BME280;64873;50.102;14.434;2023-04-28T05:02:35;99489.53;;;6.12;63.35
76128;BME280;64873;50.102;14.434;2023-04-28T05:05:01;99487.69;;;6.27;63.12
76128;BME280;64873;50.102;14.434;2023-04-28T05:07:27;99487.69;;;6.27;63.08
76128;BME280;64873;50.102;14.434;2023-04-28T05:09:52;99471.31;;;6.24;63.29
76128;BME280;64873;50.102;14.434;2023-04-28T05:12:17;99472.22;;;6.31;63.14
76128;BME280;64873;50.102;14.434;2023-04-28T05:14:43;99484.22;;;6.27;63.71
76128;BME280;64873;50.102;14.434;2023-04-28T05:17:08;99473.88;;;6.32;63.29
76128;BME280;64873;50.102;14.434;2023-04-28T05:19:34;99482.03;;;6.30;63.66
76128;BME280;64873;50.102;14.434;2023-04-28T05:21:59;99475.63;;;6.25;63.87
76128;BME280;64873;50.102;14.434;2023-04-28T05:24:26;99468.56;;;6.32;64.07
76128;BME280;64873;50.102;14.434;2023-04-28T05:26:51;99465.56;;;6.35;64.07
76128;BME280;64873;50.102;14.434;2023-04-28T05:29:19;99468.50;;;6.40;63.55
76128;BME280;64873;50.102;14.434;2023-04-28T05:31:44;99467.56;;;6.48;63.50
76128;BME280;64873;50.102;14.434;2023-04-28T05:34:10;99472.59;;;6.57;63.30
76128;BME280;64873;50.102;14.434;2023-04-28T05:36:35;99476.50;;;6.61;63.11
76128;BME280;64873;50.102;14.434;2023-04-28T05:39:01;99477.97;;;6.49;63.49
76128;BME280;64873;50.102;14.434;2023-04-28T05:41:26;99490.97;;;6.59;63.04
76128;BME280;64873;50.102;14.434;2023-04-28T05:43:51;99477.97;;;6.64;62.98
76128;BME280;64873;50.102;14.434;2023-04-28T05:46:17;99475.13;;;6.65;62.71
76128;BME280;64873;50.102;14.434;2023-04-28T05:48:43;99470.28;;;6.54;62.75
76128;BME280;64873;50.102;14.434;2023-04-28T05:51:08;99467.16;;;6.65;62.40
76128;BME280;64873;50.102;14.434;2023-04-28T05:53:33;99457.91;;;6.61;62.55
76128;BME280;64873;50.102;14.434;2023-04-28T05:55:59;99469.94;;;6.79;62.63
76128;BME280;64873;50.102;14.434;2023-04-28T05:58:24;99466.28;;;7.16;61.12
76128;BME280;64873;50.102;14.434;2023-04-28T06:00:50;99465.06;;;7.18;60.38
76128;BME280;64873;50.102;14.434;2023-04-28T06:03:15;99461.34;;;7.62;59.18
76128;BME280;64873;50.102;14.434;2023-04-28T06:05:43;99451.63;;;7.76;59.00
76128;BME280;64873;50.102;14.434;2023-04-28T06:08:09;99443.63;;;8.04;59.42
76128;BME280;64873;50.102;14.434;2023-04-28T06:10:34;99445.16;;;7.36;59.33
76128;BME280;64873;50.102;14.434;2023-04-28T06:13:00;99445.66;;;7.46;59.18
76128;BME280;64873;50.102;14.434;2023-04-28T06:15:26;99441.91;;;7.96;58.20
76128;BME280;64873;50.102;14.434;2023-04-28T06:17:52;99421.50;;;7.69;58.53
76128;BME280;64873;50.102;14.434;2023-04-28T06:20:18;99428.75;;;7.82;58.14
76128;BME280;64873;50.102;14.434;2023-04-28T06:22:44;99434.13;;;7.95;57.10
76128;BME280;64873;50.102;14.434;2023-04-28T06:25:10;99445.00;;;8.35;57.00
76128;BME280;64873;50.102;14.434;2023-04-28T06:27:35;99441.81;;;8.46;57.19
76128;BME280;64873;50.102;14.434;2023-04-28T06:30:01;99417.13;;;8.31;56.31
76128;BME280;64873;50.102;14.434;2023-04-28T06:32:26;99404.84;;;8.29;56.10
76128;BME280;64873;50.102;14.434;2023-04-28T06:34:52;99427.84;;;8.44;55.92
76128;BME280;64873;50.102;14.434;2023-04-28T06:37:17;99414.75;;;8.49;55.67
76128;BME280;64873;50.102;14.434;2023-04-28T06:39:43;99432.44;;;8.57;55.65
76128;BME280;64873;50.102;14.434;2023-04-28T06:42:08;99407.44;;;8.64;55.70
76128;BME280;64873;50.102;14.434;2023-04-28T06:44:33;99423.69;;;8.82;56.33
76128;BME280;64873;50.102;14.434;2023-04-28T06:46:59;99421.47;;;9.19;54.23
76128;BME280;64873;50.102;14.434;2023-04-28T06:49:25;99431.06;;;8.87;55.09
76128;BME280;64873;50.102;14.434;2023-04-28T06:51:50;99419.81;;;9.12;54.75
76128;BME280;64873;50.102;14.434;2023-04-28T06:54:15;99426.81;;;9.52;53.70
76128;BME280;64873;50.102;14.434;2023-04-28T06:56:41;99419.22;;;9.43;53.71
76128;BME280;64873;50.102;14.434;2023-04-28T06:59:06;99417.38;;;9.23;54.70
76128;BME280;64873;50.102;14.434;2023-04-28T07:01:32;99413.69;;;9.38;54.01
76128;BME280;64873;50.102;14.434;2023-04-28T07:03:57;99409.16;;;9.71;53.39
76128;BME280;64873;50.102;14.434;2023-04-28T07:06:23;99402.47;;;10.13;52.85
76128;BME280;64873;50.102;14.434;2023-04-28T07:08:51;99408.72;;;9.87;52.87
76128;BME280;64873;50.102;14.434;2023-04-28T07:11:16;99399.31;;;10.36;51.80
76128;BME280;64873;50.102;14.434;2023-04-28T07:13:41;99388.78;;;9.83;52.77
76128;BME280;64873;50.102;14.434;2023-04-28T07:16:07;99392.72;;;9.74;53.34
76128;BME280;64873;50.102;14.434;2023-04-28T07:18:34;99384.09;;;9.72;53.57
76128;BME280;64873;50.102;14.434;2023-04-28T07:20:59;99386.09;;;9.90;52.83
76128;BME280;64873;50.102;14.434;2023-04-28T07:23:25;99385.69;;;10.00;52.80
76128;BME280;64873;50.102;14.434;2023-04-28T07:25:50;99386.44;;;10.13;52.64
76128;BME280;64873;50.102;14.434;2023-04-28T07:28:16;99372.81;;;10.41;52.25
76128;BME280;64873;50.102;14.434;2023-04-28T07:30:41;99388.97;;;10.91;51.24
76128;BME280;64873;50.102;14.434;2023-04-28T07:33:06;99379.56;;;10.51;51.61
76128;BME280;64873;50.102;14.434;2023-04-28T07:35:32;99369.81;;;10.63;51.60
76128;BME280;64873;50.102;14.434;2023-04-28T07:37:57;99359.03;;;10.76;51.31
76128;BME280;64873;50.102;14.434;2023-04-28T07:40:23;99365.28;;;10.63;51.50
76128;BME280;64873;50.102;14.434;2023-04-28T07:42:48;99370.09;;;10.86;51.09
76128;BME280;64873;50.102;14.434;2023-04-28T07:45:14;99371.38;;;10.77;51.32
76128;BME280;64873;50.102;14.434;2023-04-28T07:47:42;99361.78;;;10.94;50.34
76128;BME280;64873;50.102;14.434;2023-04-28T07:50:09;99368.34;;;10.99;50.91
76128;BME280;64873;50.102;14.434;2023-04-28T07:52:36;99347.69;;;11.56;49.80
76128;BME280;64873;50.102;14.434;2023-04-28T07:55:01;99352.03;;;11.75;48.90
76128;BME280;64873;50.102;14.434;2023-04-28T07:57:27;99365.53;;;11.43;50.01
76128;BME280;64873;50.102;14.434;2023-04-28T07:59:56;99355.19;;;12.09;48.47
76128;BME280;64873;50.102;14.434;2023-04-28T08:02:21;99355.28;;;11.77;49.07
76128;BME280;64873;50.102;14.434;2023-04-28T08:04:46;99352.38;;;12.34;47.80
76128;BME280;64873;50.102;14.434;2023-04-28T08:07:12;99354.97;;;12.40;47.43
76128;BME280;64873;50.102;14.434;2023-04-28T08:09:38;99344.22;;;12.59;47.17
76128;BME280;64873;50.102;14.434;2023-04-28T08:12:05;99342.72;;;12.33;48.23
76128;BME280;64873;50.102;14.434;2023-04-28T08:14:30;99341.28;;;12.60;47.80
76128;BME280;64873;50.102;14.434;2023-04-28T08:16:56;99319.63;;;12.62;47.39
76128;BME280;64873;50.102;14.434;2023-04-28T08:19:21;99347.13;;;12.99;46.55
76128;BME280;64873;50.102;14.434;2023-04-28T08:21:47;99330.00;;;12.28;47.93
76128;BME280;64873;50.102;14.434;2023-04-28T08:24:13;99327.63;;;12.01;48.66
76128;BME280;64873;50.102;14.434;2023-04-28T08:26:38;99314.91;;;12.45;47.89
76128;BME280;64873;50.102;14.434;2023-04-28T08:29:04;99321.66;;;12.48;47.45
76128;BME280;64873;50.102;14.434;2023-04-28T08:31:29;99319.75;;;12.07;48.67
76128;BME280;64873;50.102;14.434;2023-04-28T08:33:55;99325.50;;;11.92;49.41
76128;BME280;64873;50.102;14.434;2023-04-28T08:36:20;99327.84;;;12.48;48.25
76128;BME280;64873;50.102;14.434;2023-04-28T08:38:47;99331.59;;;12.47;48.37
76128;BME280;64873;50.102;14.434;2023-04-28T08:41:14;99320.56;;;12.56;48.13
76128;BME280;64873;50.102;14.434;2023-04-28T08:43:40;99320.66;;;12.91;47.45
76128;BME280;64873;50.102;14.434;2023-04-28T08:46:08;99320.41;;;12.92;47.49
76128;BME280;64873;50.102;14.434;2023-04-28T08:48:43;99306.31;;;12.97;47.45
76128;BME280;64873;50.102;14.434;2023-04-28T08:51:14;99312.94;;;13.06;46.80
76128;BME280;64873;50.102;14.434;2023-04-28T08:53:44;99308.53;;;13.12;46.41
76128;BME280;64873;50.102;14.434;2023-04-28T08:56:16;99306.13;;;13.33;46.02
76128;BME280;64873;50.102;14.434;2023-04-28T08:58:43;99301.13;;;13.37;46.39
76128;BME280;64873;50.102;14.434;2023-04-28T09:01:09;99307.28;;;13.61;46.17
76128;BME280;64873;50.102;14.434;2023-04-28T09:03:34;99298.97;;;13.63;45.91
76128;BME280;64873;50.102;14.434;2023-04-28T09:06:00;99288.13;;;14.09;45.13
76128;BME280;64873;50.102;14.434;2023-04-28T09:08:26;99290.81;;;14.38;44.58
76128;BME280;64873;50.102;14.434;2023-04-28T09:11:11;99265.75;;;13.92;44.95
76128;BME280;64873;50.102;14.434;2023-04-28T09:13:38;99284.59;;;14.83;43.49
76128;BME280;64873;50.102;14.434;2023-04-28T09:16:04;99280.16;;;14.43;44.01
76128;BME280;64873;50.102;14.434;2023-04-28T09:18:30;99268.78;;;15.03;42.80
76128;BME280;64873;50.102;14.434;2023-04-28T09:21:11;99261.69;;;15.14;42.52
76128;BME280;64873;50.102;14.434;2023-04-28T09:23:47;99264.94;;;14.65;43.42
76128;BME280;64873;50.102;14.434;2023-04-28T09:26:13;99249.72;;;14.88;43.35
76128;BME280;64873;50.102;14.434;2023-04-28T09:28:38;99260.38;;;15.00;42.75
76128;BME280;64873;50.102;14.434;2023-04-28T09:31:04;99251.59;;;14.71;43.40
76128;BME280;64873;50.102;14.434;2023-04-28T09:33:29;99263.25;;;14.93;42.96
76128;BME280;64873;50.102;14.434;2023-04-28T09:35:55;99255.00;;;14.49;44.12
76128;BME280;64873;50.102;14.434;2023-04-28T09:38:21;99249.78;;;14.93;43.43
76128;BME280;64873;50.102;14.434;2023-04-28T09:43:35;99245.28;;;15.54;42.59
76128;BME280;64873;50.102;14.434;2023-04-28T09:46:04;99235.38;;;14.82;43.73
76128;BME280;64873;50.102;14.434;2023-04-28T09:48:34;99241.00;;;15.58;42.56
76128;BME280;64873;50.102;14.434;2023-04-28T09:51:02;99233.91;;;15.91;41.73
76128;BME280;64873;50.102;14.434;2023-04-28T09:53:28;99243.28;;;16.10;40.96
76128;BME280;64873;50.102;14.434;2023-04-28T09:55:56;99232.00;;;16.13;40.88
76128;BME280;64873;50.102;14.434;2023-04-28T09:58:23;99225.97;;;16.06;41.16
76128;BME280;64873;50.102;14.434;2023-04-28T10:00:55;99219.22;;;16.04;40.86
76128;BME280;64873;50.102;14.434;2023-04-28T10:03:22;99197.31;;;15.51;41.47
76128;BME280;64873;50.102;14.434;2023-04-28T10:05:48;99201.63;;;16.55;40.73
76128;BME280;64873;50.102;14.434;2023-04-28T10:08:15;99198.78;;;16.40;39.73
76128;BME280;64873;50.102;14.434;2023-04-28T10:10:41;99209.41;;;16.19;40.72
76128;BME280;64873;50.102;14.434;2023-04-28T10:13:07;99201.31;;;16.78;39.72
76128;BME280;64873;50.102;14.434;2023-04-28T10:15:34;99205.34;;;17.23;38.63
76128;BME280;64873;50.102;14.434;2023-04-28T10:18:01;99203.25;;;17.30;39.55
76128;BME280;64873;50.102;14.434;2023-04-28T10:20:28;99195.63;;;17.22;38.32
76128;BME280;64873;50.102;14.434;2023-04-28T10:25:47;99191.28;;;17.16;38.27
76128;BME280;64873;50.102;14.434;2023-04-28T10:28:14;99182.50;;;16.94;39.41
76128;BME280;64873;50.102;14.434;2023-04-28T10:30:40;99182.66;;;16.72;39.78
76128;BME280;64873;50.102;14.434;2023-04-28T10:35:44;99176.28;;;16.56;40.67
76128;BME280;64873;50.102;14.434;2023-04-28T10:38:15;99168.75;;;16.95;39.48
76128;BME280;64873;50.102;14.434;2023-04-28T10:40:41;99163.19;;;17.12;39.02
76128;BME280;64873;50.102;14.434;2023-04-28T10:43:08;99163.69;;;17.09;39.17
76128;BME280;64873;50.102;14.434;2023-04-28T10:48:20;99158.03;;;17.11;38.15
76128;BME280;64873;50.102;14.434;2023-04-28T10:56:19;99164.69;;;16.93;37.77
76128;BME280;64873;50.102;14.434;2023-04-28T10:58:52;99172.75;;;16.88;38.17
76128;BME280;64873;50.102;14.434;2023-04-28T11:03:58;99166.44;;;17.14;38.43
76128;BME280;64873;50.102;14.434;2023-04-28T11:16:53;99162.06;;;16.34;40.57
76128;BME280;64873;50.102;14.434;2023-04-28T11:19:23;99178.16;;;16.23;39.17
76128;BME280;64873;50.102;14.434;2023-04-28T11:21:50;99177.53;;;16.43;39.69
76128;BME280;64873;50.102;14.434;2023-04-28T11:24:16;99170.88;;;16.56;39.91
76128;BME280;64873;50.102;14.434;2023-04-28T11:26:43;99178.13;;;16.50;40.13
76128;BME280;64873;50.102;14.434;2023-04-28T11:29:09;99168.16;;;16.51;40.36
76128;BME280;64873;50.102;14.434;2023-04-28T11:31:36;99170.78;;;16.73;40.31
76128;BME280;64873;50.102;14.434;2023-04-28T11:34:07;99160.72;;;16.68;39.65
76128;BME280;64873;50.102;14.434;2023-04-28T11:36:38;99179.78;;;16.89;38.23
76128;BME280;64873;50.102;14.434;2023-04-28T11:39:05;99169.00;;;16.89;37.26
76128;BME280;64873;50.102;14.434;2023-04-28T11:41:33;99169.09;;;16.67;37.74
76128;BME280;64873;50.102;14.434;2023-04-28T11:43:59;99154.16;;;16.59;37.48
76128;BME280;64873;50.102;14.434;2023-04-28T11:46:25;99161.72;;;16.57;37.68
76128;BME280;64873;50.102;14.434;2023-04-28T11:49:03;99177.00;;;16.46;38.35
76128;BME280;64873;50.102;14.434;2023-04-28T11:51:36;99193.28;;;16.24;41.43
76128;BME280;64873;50.102;14.434;2023-04-28T11:54:04;99179.44;;;16.16;42.14
76128;BME280;64873;50.102;14.434;2023-04-28T11:56:39;99182.91;;;16.11;43.38
76128;BME280;64873;50.102;14.434;2023-04-28T11:59:07;99175.94;;;16.15;43.07
76128;BME280;64873;50.102;14.434;2023-04-28T12:01:42;99185.75;;;16.26;41.65
76128;BME280;64873;50.102;14.434;2023-04-28T12:04:08;99188.44;;;16.26;43.21
76128;BME280;64873;50.102;14.434;2023-04-28T12:06:33;99193.53;;;16.23;43.40
76128;BME280;64873;50.102;14.434;2023-04-28T12:08:59;99192.06;;;16.10;43.09
76128;BME280;64873;50.102;14.434;2023-04-28T12:11:29;99187.13;;;16.02;43.23
76128;BME280;64873;50.102;14.434;2023-04-28T12:14:07;99205.94;;;15.97;43.19
76128;BME280;64873;50.102;14.434;2023-04-28T12:16:41;99204.31;;;15.96;44.21
76128;BME280;64873;50.102;14.434;2023-04-28T12:19:09;99196.38;;;15.84;44.27
76128;BME280;64873;50.102;14.434;2023-04-28T12:21:38;99197.94;;;15.80;45.95
76128;BME280;64873;50.102;14.434;2023-04-28T12:24:18;99208.06;;;15.51;46.37
76128;BME280;64873;50.102;14.434;2023-04-28T12:26:44;99197.16;;;15.41;48.27
76128;BME280;64873;50.102;14.434;2023-04-28T12:29:38;99193.66;;;15.40;48.49
76128;BME280;64873;50.102;14.434;2023-04-28T12:32:05;99201.16;;;15.16;51.10
76128;BME280;64873;50.102;14.434;2023-04-28T12:34:31;99196.09;;;15.20;49.39
76128;BME280;64873;50.102;14.434;2023-04-28T12:36:58;99193.00;;;15.11;48.84
76128;BME280;64873;50.102;14.434;2023-04-28T12:39:24;99193.22;;;15.27;49.21
76128;BME280;64873;50.102;14.434;2023-04-28T12:41:51;99195.28;;;15.41;48.59
76128;BME280;64873;50.102;14.434;2023-04-28T12:44:16;99202.94;;;15.28;48.30
76128;BME280;64873;50.102;14.434;2023-04-28T12:46:42;99200.41;;;15.21;49.51
76128;BME280;64873;50.102;14.434;2023-04-28T12:49:08;99199.56;;;14.99;49.54
76128;BME280;64873;50.102;14.434;2023-04-28T12:51:33;99185.66;;;14.85;50.19
76128;BME280;64873;50.102;14.434;2023-04-28T12:54:00;99189.25;;;14.74;50.36
76128;BME280;64873;50.102;14.434;2023-04-28T12:56:25;99191.59;;;14.70;51.12
76128;BME280;64873;50.102;14.434;2023-04-28T12:58:52;99200.00;;;14.74;51.70
76128;BME280;64873;50.102;14.434;2023-04-28T13:01:17;99197.66;;;14.60;52.95
76128;BME280;64873;50.102;14.434;2023-04-28T13:03:42;99191.13;;;14.56;53.29
76128;BME280;64873;50.102;14.434;2023-04-28T13:06:08;99199.03;;;14.18;55.31
76128;BME280;64873;50.102;14.434;2023-04-28T13:08:35;99196.28;;;14.46;55.56
76128;BME280;64873;50.102;14.434;2023-04-28T13:11:01;99196.72;;;13.93;56.24
76128;BME280;64873;50.102;14.434;2023-04-28T13:13:28;99207.50;;;14.09;56.10
76128;BME280;64873;50.102;14.434;2023-04-28T13:15:54;99199.19;;;14.11;56.73
76128;BME280;64873;50.102;14.434;2023-04-28T13:18:19;99199.53;;;13.86;58.08
76128;BME280;64873;50.102;14.434;2023-04-28T13:20:45;99206.88;;;14.36;56.90